createdAt,value
2022-12-11T00:00:11.061Z,99485.25
2022-12-11T00:01:11.059Z,99480.62
2022-12-11T00:02:11.119Z,99485.05
2022-12-11T00:03:15.645Z,99488.09
2022-12-11T00:04:13.085Z,99486.63
2022-12-11T00:05:11.264Z,99482.59
2022-12-11T00:06:11.068Z,99487.31
2022-12-11T00:07:11.065Z,99484.95
2022-12-11T00:08:11.122Z,99483.63
2022-12-11T00:09:11.068Z,99487.36
2022-12-11T00:10:11.061Z,99486.51
2022-12-11T00:11:14.064Z,99487.55
2022-12-11T00:12:11.064Z,99489.47
2022-12-11T00:13:11.062Z,99489.21
2022-12-11T00:14:11.060Z,99488.37
2022-12-11T00:15:11.316Z,99490.05
2022-12-11T00:16:11.118Z,99486.82
2022-12-11T00:17:11.111Z,99492.54
2022-12-11T00:18:13.060Z,99490.61
2022-12-11T00:19:11.063Z,99492.14
2022-12-11T00:20:11.059Z,99491.83
2022-12-11T00:21:14.059Z,99491.47
2022-12-11T00:22:11.068Z,99489.25
2022-12-11T00:23:11.059Z,99488.61
2022-12-11T00:24:11.060Z,99486.01
2022-12-11T00:25:11.438Z,99485.77
2022-12-11T00:26:12.063Z,99488.89
2022-12-11T00:27:11.059Z,99482.93
2022-12-11T00:28:11.069Z,99485.08
2022-12-11T00:29:12.059Z,99481.12
2022-12-11T00:30:11.063Z,99485.84
2022-12-11T00:31:12.070Z,99481.86
2022-12-11T00:32:11.116Z,99477.21
2022-12-11T00:33:11.064Z,99476.89
2022-12-11T00:34:11.069Z,99478.39
2022-12-11T00:35:11.302Z,99474.23
2022-12-11T00:36:14.060Z,99472.93
2022-12-11T00:37:11.093Z,99471.84
2022-12-11T00:38:14.063Z,99476.46
2022-12-11T00:39:11.063Z,99474.71
2022-12-11T00:40:11.069Z,99474.64
2022-12-11T00:41:11.060Z,99474.50
2022-12-11T00:42:11.060Z,99474.98
2022-12-11T00:43:11.069Z,99471.98
2022-12-11T00:44:11.059Z,99472.40
2022-12-11T00:45:11.281Z,99470.05
2022-12-11T00:46:11.186Z,99469.77
2022-12-11T00:47:11.061Z,99472.02
2022-12-11T00:48:11.061Z,99468.90
2022-12-11T00:49:11.071Z,99467.57
2022-12-11T00:50:11.060Z,99461.85
2022-12-11T00:51:11.067Z,99462.81
2022-12-11T00:52:11.068Z,99463.33
2022-12-11T00:53:11.060Z,99462.60
2022-12-11T00:54:11.064Z,99461.28
2022-12-11T00:55:11.257Z,99465.67
2022-12-11T00:56:14.060Z,99466.39
2022-12-11T00:57:11.062Z,99467.22
2022-12-11T00:58:11.064Z,99467.98
2022-12-11T00:59:11.060Z,99469.85
2022-12-11T01:00:13.067Z,99470.79
2022-12-11T01:01:15.126Z,99468.27
2022-12-11T01:02:11.062Z,99472.34
2022-12-11T01:03:12.186Z,99469.39
2022-12-11T01:04:11.061Z,99471.73
2022-12-11T01:05:11.351Z,99468.77
2022-12-11T01:06:13.062Z,99472.43
2022-12-11T01:07:11.062Z,99469.07
2022-12-11T01:08:11.144Z,99470.00
2022-12-11T01:09:15.060Z,99473.14
2022-12-11T01:10:15.087Z,99469.13
2022-12-11T01:11:12.070Z,99467.47
2022-12-11T01:12:11.062Z,99467.86
2022-12-11T01:13:11.058Z,99465.63
2022-12-11T01:14:11.069Z,99465.93
2022-12-11T01:15:11.311Z,99465.97
2022-12-11T01:16:11.064Z,99465.96
2022-12-11T01:17:11.071Z,99465.95
2022-12-11T01:18:11.060Z,99463.47
2022-12-11T01:19:11.067Z,99465.57
2022-12-11T01:20:11.070Z,99464.98
2022-12-11T01:21:11.067Z,99465.26
2022-12-11T01:22:11.064Z,99466.76
2022-12-11T01:23:11.072Z,99464.35
2022-12-11T01:24:11.061Z,99465.75
2022-12-11T01:25:11.280Z,99466.87
2022-12-11T01:26:14.072Z,99463.04
2022-12-11T01:27:11.062Z,99464.18
2022-12-11T01:28:11.062Z,99463.62
2022-12-11T01:29:11.066Z,99466.07
2022-12-11T01:30:11.068Z,99462.12
2022-12-11T01:31:14.176Z,99462.16
2022-12-11T01:32:11.063Z,99461.08
2022-12-11T01:33:11.063Z,99463.25
2022-12-11T01:34:11.059Z,99464.84
2022-12-11T01:35:11.451Z,99460.70
2022-12-11T01:36:20.065Z,99462.11
2022-12-11T01:37:11.066Z,99462.86
2022-12-11T01:38:11.070Z,99463.13
2022-12-11T01:39:11.065Z,99464.19
2022-12-11T01:40:12.061Z,99462.02
2022-12-11T01:41:11.065Z,99461.49
2022-12-11T01:42:18.063Z,99460.95
2022-12-11T01:43:13.062Z,99458.73
2022-12-11T01:44:19.064Z,99458.57
2022-12-11T01:45:19.066Z,99454.51
2022-12-11T01:46:11.131Z,99455.20
2022-12-11T01:47:11.060Z,99455.47
2022-12-11T01:48:13.070Z,99456.19
2022-12-11T01:49:14.067Z,99457.75
2022-12-11T01:50:11.061Z,99458.38
2022-12-11T01:51:11.067Z,99459.96
2022-12-11T01:52:18.065Z,99459.22
2022-12-11T01:53:13.063Z,99458.46
2022-12-11T01:54:13.062Z,99457.25
2022-12-11T01:55:11.291Z,99458.05
2022-12-11T01:56:11.064Z,99455.55
2022-12-11T01:57:11.064Z,99458.84
2022-12-11T01:58:11.064Z,99459.64
2022-12-11T01:59:11.061Z,99457.37
2022-12-11T02:00:11.062Z,99457.88
2022-12-11T02:01:12.110Z,99458.38
2022-12-11T02:02:16.068Z,99458.69
2022-12-11T02:03:11.062Z,99457.93
2022-12-11T02:04:11.090Z,99458.62
2022-12-11T02:05:11.363Z,99458.14
2022-12-11T02:06:19.072Z,99458.94
2022-12-11T02:07:11.064Z,99457.70
2022-12-11T02:08:11.144Z,99453.73
2022-12-11T02:09:14.063Z,99455.89
2022-12-11T02:10:11.064Z,99452.80
2022-12-11T02:11:20.065Z,99452.67
2022-12-11T02:12:22.060Z,99452.15
2022-12-11T02:13:16.058Z,99454.95
2022-12-11T02:14:19.061Z,99459.42
2022-12-11T02:15:22.056Z,99462.66
2022-12-11T02:16:22.076Z,99462.88
2022-12-11T02:17:19.060Z,99465.84
2022-12-11T02:18:19.060Z,99463.88
2022-12-11T02:19:19.060Z,99461.86
2022-12-11T02:20:22.058Z,99460.73
2022-12-11T02:21:20.058Z,99460.61
2022-12-11T02:22:15.062Z,99459.14
2022-12-11T02:23:19.062Z,99459.63
2022-12-11T02:24:19.059Z,99460.01
2022-12-11T02:25:25.058Z,99460.27
2022-12-11T02:26:19.067Z,99462.61
2022-12-11T02:27:19.055Z,99464.22
2022-12-11T02:28:19.058Z,99465.41
2022-12-11T02:29:16.066Z,99464.12
2022-12-11T02:30:14.060Z,99466.08
2022-12-11T02:31:19.070Z,99465.39
2022-12-11T02:32:21.063Z,99467.08
2022-12-11T02:33:11.062Z,99468.82
2022-12-11T02:34:19.057Z,99468.25
2022-12-11T02:35:19.059Z,99467.87
2022-12-11T02:36:11.055Z,99466.84
2022-12-11T02:37:15.069Z,99467.27
2022-12-11T02:38:22.061Z,99467.50
2022-12-11T02:39:12.060Z,99468.68
2022-12-11T02:40:12.061Z,99472.75
2022-12-11T02:41:11.061Z,99468.53
2022-12-11T02:42:11.060Z,99471.77
2022-12-11T02:43:15.065Z,99468.85
2022-12-11T02:44:13.062Z,99468.46
2022-12-11T02:45:11.298Z,99466.43
2022-12-11T02:46:11.106Z,99463.76
2022-12-11T02:47:13.063Z,99469.18
2022-12-11T02:48:11.060Z,99464.50
2022-12-11T02:49:12.056Z,99466.84
2022-12-11T02:50:13.067Z,99461.96
2022-12-11T02:51:11.060Z,99460.38
2022-12-11T02:52:13.056Z,99460.38
2022-12-11T02:53:12.067Z,99460.11
2022-12-11T02:54:17.061Z,99458.76
2022-12-11T02:55:12.199Z,99455.91
2022-12-11T02:56:13.067Z,99450.61
2022-12-11T02:57:15.079Z,99450.04
2022-12-11T02:58:17.057Z,99450.44
2022-12-11T02:59:16.058Z,99443.33
2022-12-11T03:00:11.062Z,99446.22
2022-12-11T03:01:11.098Z,99446.73
2022-12-11T03:02:11.098Z,99443.50
2022-12-11T03:03:11.060Z,99438.86
2022-12-11T03:04:11.059Z,99440.55
2022-12-11T03:05:11.384Z,99438.86
2022-12-11T03:06:13.060Z,99438.77
2022-12-11T03:07:16.061Z,99437.95
2022-12-11T03:08:11.082Z,99436.55
2022-12-11T03:09:11.070Z,99438.52
2022-12-11T03:10:11.059Z,99432.14
2022-12-11T03:11:12.061Z,99434.32
2022-12-11T03:12:11.077Z,99428.61
2022-12-11T03:13:11.058Z,99431.45
2022-12-11T03:14:11.060Z,99431.48
2022-12-11T03:15:14.061Z,99431.23
2022-12-11T03:16:19.120Z,99431.97
2022-12-11T03:17:18.060Z,99435.21
2022-12-11T03:18:19.075Z,99429.41
2022-12-11T03:19:19.060Z,99431.57
2022-12-11T03:20:19.061Z,99428.71
2022-12-11T03:21:18.062Z,99422.22
2022-12-11T03:22:21.063Z,99426.60
2022-12-11T03:23:19.071Z,99424.82
2022-12-11T03:24:16.061Z,99425.41
2022-12-11T03:25:20.063Z,99423.84
2022-12-11T03:26:15.063Z,99421.73
2022-12-11T03:27:19.072Z,99420.44
2022-12-11T03:28:17.060Z,99419.62
2022-12-11T03:29:19.059Z,99417.62
2022-12-11T03:30:15.061Z,99416.68
2022-12-11T03:31:13.130Z,99418.08
2022-12-11T03:32:19.060Z,99412.29
2022-12-11T03:33:19.069Z,99417.62
2022-12-11T03:34:19.061Z,99415.22
2022-12-11T03:35:18.085Z,99415.05
2022-12-11T03:36:13.060Z,99410.70
2022-12-11T03:37:11.060Z,99411.43
2022-12-11T03:38:12.065Z,99413.78
2022-12-11T03:39:17.063Z,99412.97
2022-12-11T03:40:17.057Z,99414.93
2022-12-11T03:41:11.061Z,99416.46
2022-12-11T03:42:11.062Z,99414.86
2022-12-11T03:43:11.059Z,99413.39
2022-12-11T03:44:11.088Z,99411.93
2022-12-11T03:45:11.480Z,99413.55
2022-12-11T03:46:11.087Z,99416.54
2022-12-11T03:47:11.063Z,99414.58
2022-12-11T03:48:11.062Z,99414.27
2022-12-11T03:49:19.058Z,99412.77
2022-12-11T03:50:11.060Z,99413.46
2022-12-11T03:51:11.061Z,99418.43
2022-12-11T03:52:11.060Z,99410.15
2022-12-11T03:53:11.064Z,99414.45
2022-12-11T03:54:11.063Z,99413.12
2022-12-11T03:55:11.433Z,99408.72
2022-12-11T03:56:11.095Z,99407.34
2022-12-11T03:57:12.062Z,99407.03
2022-12-11T03:58:11.061Z,99405.93
2022-12-11T03:59:11.064Z,99401.96
2022-12-11T04:00:12.064Z,99401.63
2022-12-11T04:01:11.061Z,99402.21
2022-12-11T04:02:14.064Z,99402.33
2022-12-11T04:03:15.146Z,99401.93
2022-12-11T04:04:11.095Z,99402.07
2022-12-11T04:05:11.318Z,99401.41
2022-12-11T04:06:11.063Z,99405.15
2022-12-11T04:07:11.089Z,99404.82
2022-12-11T04:08:11.191Z,99407.02
2022-12-11T04:09:11.066Z,99405.15
2022-12-11T04:10:11.063Z,99407.32
2022-12-11T04:11:15.067Z,99408.96
2022-12-11T04:12:11.064Z,99409.76
2022-12-11T04:13:11.071Z,99405.20
2022-12-11T04:14:15.064Z,99407.84
2022-12-11T04:15:11.231Z,99407.46
2022-12-11T04:16:11.148Z,99411.59
2022-12-11T04:17:11.070Z,99410.58
2022-12-11T04:18:15.064Z,99407.79
2022-12-11T04:19:15.060Z,99408.06
2022-12-11T04:20:15.058Z,99408.15
2022-12-11T04:21:15.061Z,99408.40
2022-12-11T04:22:15.071Z,99408.05
2022-12-11T04:23:15.064Z,99403.74
2022-12-11T04:24:15.062Z,99401.62
2022-12-11T04:25:11.372Z,99401.19
2022-12-11T04:26:15.063Z,99404.80
2022-12-11T04:27:11.061Z,99398.48
2022-12-11T04:28:11.065Z,99401.14
2022-12-11T04:29:11.070Z,99403.19
2022-12-11T04:30:12.065Z,99405.64
2022-12-11T04:31:17.190Z,99402.61
2022-12-11T04:32:11.065Z,99401.54
2022-12-11T04:33:11.062Z,99402.86
2022-12-11T04:34:11.063Z,99401.94
2022-12-11T04:35:11.306Z,99404.57
2022-12-11T04:36:11.063Z,99400.44
2022-12-11T04:37:11.066Z,99403.10
2022-12-11T04:38:11.063Z,99402.43
2022-12-11T04:39:11.063Z,99403.19
2022-12-11T04:40:11.058Z,99404.66
2022-12-11T04:41:11.066Z,99404.14
2022-12-11T04:42:11.062Z,99402.64
2022-12-11T04:43:11.068Z,99403.56
2022-12-11T04:44:11.064Z,99404.39
2022-12-11T04:45:11.307Z,99405.09
2022-12-11T04:46:17.143Z,99403.21
2022-12-11T04:47:11.062Z,99403.30
2022-12-11T04:48:11.065Z,99402.57
2022-12-11T04:49:11.063Z,99401.58
2022-12-11T04:50:11.061Z,99402.78
2022-12-11T04:51:11.064Z,99400.24
2022-12-11T04:52:11.062Z,99401.39
2022-12-11T04:53:11.061Z,99401.00
2022-12-11T04:54:11.064Z,99400.88
2022-12-11T04:55:11.304Z,99401.12
2022-12-11T04:56:11.064Z,99398.51
2022-12-11T04:57:11.065Z,99398.42
2022-12-11T04:58:11.062Z,99395.37
2022-12-11T04:59:11.065Z,99392.81
2022-12-11T05:00:11.068Z,99390.25
2022-12-11T05:01:11.141Z,99392.28
2022-12-11T05:02:11.071Z,99390.00
2022-12-11T05:03:11.099Z,99386.62
2022-12-11T05:04:11.062Z,99388.88
2022-12-11T05:05:11.324Z,99384.38
2022-12-11T05:06:11.064Z,99387.49
2022-12-11T05:07:11.060Z,99384.71
2022-12-11T05:08:11.079Z,99385.40
2022-12-11T05:09:13.062Z,99383.25
2022-12-11T05:10:11.062Z,99383.09
2022-12-11T05:11:14.066Z,99383.77
2022-12-11T05:12:11.060Z,99388.05
2022-12-11T05:13:11.055Z,99383.57
2022-12-11T05:14:11.058Z,99385.64
2022-12-11T05:15:11.415Z,99384.63
2022-12-11T05:16:11.106Z,99388.09
2022-12-11T05:17:11.058Z,99386.34
2022-12-11T05:18:11.057Z,99387.18
2022-12-11T05:19:11.056Z,99389.76
2022-12-11T05:20:11.059Z,99389.12
2022-12-11T05:21:13.061Z,99392.39
2022-12-11T05:22:11.055Z,99389.47
2022-12-11T05:23:11.056Z,99387.49
2022-12-11T05:24:11.058Z,99386.27
2022-12-11T05:25:11.328Z,99387.41
2022-12-11T05:26:12.057Z,99386.63
2022-12-11T05:27:11.057Z,99386.10
2022-12-11T05:28:11.056Z,99383.46
2022-12-11T05:29:11.061Z,99381.47
2022-12-11T05:30:11.058Z,99381.68
2022-12-11T05:31:14.156Z,99382.17
2022-12-11T05:32:11.060Z,99382.96
2022-12-11T05:33:11.058Z,99383.01
2022-12-11T05:34:11.053Z,99384.07
2022-12-11T05:35:11.380Z,99384.17
2022-12-11T05:36:14.055Z,99383.73
2022-12-11T05:37:11.055Z,99383.04
2022-12-11T05:38:11.065Z,99381.14
2022-12-11T05:39:11.057Z,99380.38
2022-12-11T05:40:13.070Z,99379.28
2022-12-11T05:41:12.065Z,99381.89
2022-12-11T05:42:11.059Z,99381.23
2022-12-11T05:43:11.053Z,99376.79
2022-12-11T05:44:14.068Z,99374.59
2022-12-11T05:45:11.364Z,99377.95
2022-12-11T05:46:14.158Z,99377.28
2022-12-11T05:47:11.057Z,99376.42
2022-12-11T05:48:11.093Z,99374.41
2022-12-11T05:49:12.059Z,99381.95
2022-12-11T05:50:11.059Z,99377.19
2022-12-11T05:51:11.058Z,99381.21
2022-12-11T05:52:11.059Z,99380.41
2022-12-11T05:53:11.057Z,99378.72
2022-12-11T05:54:11.058Z,99379.86
2022-12-11T05:55:11.399Z,99374.20
2022-12-11T05:56:15.066Z,99376.05
2022-12-11T05:57:11.058Z,99378.45
2022-12-11T05:58:11.056Z,99379.05
2022-12-11T05:59:11.066Z,99376.68
2022-12-11T06:00:11.057Z,99379.91
2022-12-11T06:01:11.057Z,99378.56
2022-12-11T06:02:11.188Z,99378.52
2022-12-11T06:03:11.119Z,99379.20
2022-12-11T06:04:11.058Z,99377.57
2022-12-11T06:05:11.363Z,99378.22
2022-12-11T06:06:11.057Z,99379.37
2022-12-11T06:07:11.058Z,99379.72
2022-12-11T06:08:11.106Z,99375.58
2022-12-11T06:09:14.060Z,99376.37
2022-12-11T06:10:11.057Z,99377.84
2022-12-11T06:11:11.060Z,99379.22
2022-12-11T06:12:11.057Z,99379.64
2022-12-11T06:13:11.060Z,99378.98
2022-12-11T06:14:11.060Z,99381.82
2022-12-11T06:15:11.368Z,99378.34
2022-12-11T06:16:11.112Z,99382.52
2022-12-11T06:17:11.059Z,99380.22
2022-12-11T06:18:11.057Z,99379.66
2022-12-11T06:19:14.060Z,99383.91
2022-12-11T06:20:11.081Z,99380.69
2022-12-11T06:21:14.058Z,99381.75
2022-12-11T06:22:11.057Z,99385.26
2022-12-11T06:23:11.066Z,99382.13
2022-12-11T06:24:12.058Z,99384.88
2022-12-11T06:25:11.397Z,99383.47
2022-12-11T06:26:11.068Z,99383.79
2022-12-11T06:27:11.058Z,99380.12
2022-12-11T06:28:11.059Z,99380.21
2022-12-11T06:29:13.012Z,99380.76
2022-12-11T06:30:11.060Z,99378.41
2022-12-11T06:31:11.091Z,99381.98
2022-12-11T06:32:11.063Z,99377.82
2022-12-11T06:33:11.057Z,99375.63
2022-12-11T06:34:12.060Z,99378.09
2022-12-11T06:35:11.263Z,99380.68
2022-12-11T06:36:11.058Z,99380.79
2022-12-11T06:37:11.060Z,99382.17
2022-12-11T06:38:11.066Z,99383.21
2022-12-11T06:39:11.058Z,99383.42
2022-12-11T06:40:11.058Z,99379.35
2022-12-11T06:41:11.060Z,99379.66
2022-12-11T06:42:11.058Z,99378.06
2022-12-11T06:43:11.059Z,99377.39
2022-12-11T06:44:11.069Z,99379.24
2022-12-11T06:45:11.210Z,99378.92
2022-12-11T06:46:15.176Z,99376.57
2022-12-11T06:47:11.062Z,99375.76
2022-12-11T06:48:11.058Z,99375.70
2022-12-11T06:49:11.059Z,99373.85
2022-12-11T06:50:11.069Z,99375.52
2022-12-11T06:51:11.059Z,99374.50
2022-12-11T06:52:15.096Z,99373.85
2022-12-11T06:53:13.805Z,99375.51
2022-12-11T06:54:11.059Z,99371.49
2022-12-11T06:55:11.372Z,99372.22
2022-12-11T06:56:11.061Z,99379.77
2022-12-11T06:57:11.059Z,99379.52
2022-12-11T06:58:11.059Z,99374.61
2022-12-11T06:59:12.060Z,99380.75
2022-12-11T07:00:11.063Z,99380.29
2022-12-11T07:01:19.138Z,99377.67
2022-12-11T07:02:16.100Z,99380.26
2022-12-11T07:03:11.063Z,99383.23
2022-12-11T07:04:11.068Z,99383.72
2022-12-11T07:05:11.455Z,99384.19
2022-12-11T07:06:11.062Z,99384.73
2022-12-11T07:07:11.062Z,99384.04
2022-12-11T07:08:11.101Z,99385.06
2022-12-11T07:09:11.062Z,99386.51
2022-12-11T07:10:11.060Z,99384.78
2022-12-11T07:11:11.062Z,99388.06
2022-12-11T07:12:11.062Z,99384.51
2022-12-11T07:13:11.058Z,99388.71
2022-12-11T07:14:11.068Z,99387.23
2022-12-11T07:15:11.346Z,99389.55
2022-12-11T07:16:14.099Z,99393.67
2022-12-11T07:17:11.063Z,99394.53
2022-12-11T07:18:11.060Z,99390.80
2022-12-11T07:19:11.060Z,99390.52
2022-12-11T07:20:11.063Z,99389.39
2022-12-11T07:21:11.062Z,99395.54
2022-12-11T07:22:11.057Z,99390.96
2022-12-11T07:23:11.062Z,99389.96
2022-12-11T07:24:11.062Z,99391.00
2022-12-11T07:25:11.314Z,99388.54
2022-12-11T07:26:12.066Z,99390.87
2022-12-11T07:27:11.061Z,99387.78
2022-12-11T07:28:15.193Z,99386.21
2022-12-11T07:29:13.050Z,99385.64
2022-12-11T07:30:11.063Z,99385.23
2022-12-11T07:31:11.062Z,99388.47
2022-12-11T07:32:11.176Z,99388.16
2022-12-11T07:33:11.061Z,99388.98
2022-12-11T07:34:13.062Z,99395.01
2022-12-11T07:35:11.458Z,99393.42
2022-12-11T07:36:11.066Z,99395.64
2022-12-11T07:37:11.062Z,99399.42
2022-12-11T07:38:11.061Z,99393.42
2022-12-11T07:39:13.065Z,99392.40
2022-12-11T07:40:11.063Z,99396.00
2022-12-11T07:41:11.062Z,99397.04
2022-12-11T07:42:11.069Z,99394.81
2022-12-11T07:43:11.060Z,99397.88
2022-12-11T07:44:11.064Z,99395.31
2022-12-11T07:45:11.319Z,99397.84
2022-12-11T07:46:12.142Z,99396.29
2022-12-11T07:47:11.062Z,99402.08
2022-12-11T07:48:11.069Z,99400.97
2022-12-11T07:49:11.074Z,99404.12
2022-12-11T07:50:11.081Z,99403.45
2022-12-11T07:51:14.069Z,99405.80
2022-12-11T07:52:11.063Z,99405.83
2022-12-11T07:53:11.060Z,99410.16
2022-12-11T07:54:12.075Z,99407.90
2022-12-11T07:55:11.354Z,99406.64
2022-12-11T07:56:11.058Z,99410.62
2022-12-11T07:57:14.063Z,99407.79
2022-12-11T07:58:11.061Z,99410.70
2022-12-11T07:59:11.062Z,99410.76
2022-12-11T08:00:11.060Z,99407.88
2022-12-11T08:01:19.120Z,99410.75
2022-12-11T08:02:12.163Z,99409.59
2022-12-11T08:03:11.064Z,99412.84
2022-12-11T08:04:11.068Z,99415.61
2022-12-11T08:05:11.354Z,99414.91
2022-12-11T08:06:11.058Z,99415.67
2022-12-11T08:07:11.069Z,99413.36
2022-12-11T08:08:11.119Z,99414.59
2022-12-11T08:09:15.975Z,99413.68
2022-12-11T08:10:13.792Z,99412.64
2022-12-11T08:11:12.079Z,99410.91
2022-12-11T08:12:11.055Z,99413.24
2022-12-11T08:13:11.056Z,99414.29
2022-12-11T08:14:11.057Z,99412.74
2022-12-11T08:15:11.371Z,99415.80
2022-12-11T08:16:11.056Z,99415.07
2022-12-11T08:17:11.057Z,99415.02
2022-12-11T08:18:11.056Z,99414.20
2022-12-11T08:19:11.060Z,99415.29
2022-12-11T08:20:11.057Z,99414.40
2022-12-11T08:21:14.054Z,99415.54
2022-12-11T08:22:11.056Z,99414.16
2022-12-11T08:23:11.058Z,99414.79
2022-12-11T08:24:11.057Z,99417.81
2022-12-11T08:25:11.323Z,99416.84
2022-12-11T08:26:12.060Z,99418.52
2022-12-11T08:27:11.057Z,99418.39
2022-12-11T08:28:11.056Z,99418.22
2022-12-11T08:29:11.059Z,99421.29
2022-12-11T08:30:11.054Z,99420.54
2022-12-11T08:31:11.114Z,99418.09
2022-12-11T08:32:12.585Z,99420.03
2022-12-11T08:33:11.053Z,99422.54
2022-12-11T08:34:11.065Z,99418.58
2022-12-11T08:35:11.323Z,99423.28
2022-12-11T08:36:11.058Z,99420.45
2022-12-11T08:37:11.065Z,99419.52
2022-12-11T08:38:11.057Z,99421.95
2022-12-11T08:39:11.059Z,99420.64
2022-12-11T08:40:11.065Z,99424.70
2022-12-11T08:41:21.057Z,99423.16
2022-12-11T08:42:11.058Z,99423.14
2022-12-11T08:43:11.057Z,99421.00
2022-12-11T08:44:16.728Z,99423.33
2022-12-11T08:45:11.315Z,99423.88
2022-12-11T08:46:11.131Z,99423.94
2022-12-11T08:47:11.060Z,99420.52
2022-12-11T08:48:11.057Z,99423.14
2022-12-11T08:49:11.061Z,99423.82
2022-12-11T08:50:11.064Z,99425.38
2022-12-11T08:51:12.061Z,99421.00
2022-12-11T08:52:11.059Z,99422.85
2022-12-11T08:53:11.058Z,99422.92
2022-12-11T08:54:11.057Z,99426.12
2022-12-11T08:55:11.275Z,99424.62
2022-12-11T08:56:14.059Z,99424.86
2022-12-11T08:57:11.057Z,99424.38
2022-12-11T08:58:11.059Z,99422.09
2022-12-11T08:59:11.062Z,99422.99
2022-12-11T09:00:11.058Z,99422.25
2022-12-11T09:01:15.117Z,99425.32
2022-12-11T09:02:12.072Z,99421.74
2022-12-11T09:03:12.948Z,99423.84
2022-12-11T09:04:11.060Z,99422.39
2022-12-11T09:05:11.303Z,99425.48
2022-12-11T09:06:12.059Z,99424.14
2022-12-11T09:07:11.054Z,99421.58
2022-12-11T09:08:11.123Z,99423.17
2022-12-11T09:09:11.056Z,99422.85
2022-12-11T09:10:11.060Z,99426.14
2022-12-11T09:11:14.066Z,99424.57
2022-12-11T09:12:11.058Z,99422.59
2022-12-11T09:13:11.061Z,99421.98
2022-12-11T09:14:11.067Z,99423.64
2022-12-11T09:15:11.195Z,99421.66
2022-12-11T09:16:11.099Z,99423.14
2022-12-11T09:17:11.066Z,99419.93
2022-12-11T09:18:11.058Z,99422.45
2022-12-11T09:19:12.057Z,99422.60
2022-12-11T09:20:11.059Z,99424.43
2022-12-11T09:21:14.058Z,99420.69
2022-12-11T09:22:11.059Z,99424.16
2022-12-11T09:23:11.061Z,99421.11
2022-12-11T09:24:11.061Z,99420.30
2022-12-11T09:25:11.274Z,99423.14
2022-12-11T09:26:12.059Z,99420.41
2022-12-11T09:27:11.058Z,99421.73
2022-12-11T09:28:11.057Z,99422.70
2022-12-11T09:29:11.060Z,99422.15
2022-12-11T09:30:11.056Z,99423.73
2022-12-11T09:31:15.117Z,99420.83
2022-12-11T09:32:11.067Z,99419.96
2022-12-11T09:33:11.058Z,99418.99
2022-12-11T09:34:11.060Z,99420.33
2022-12-11T09:35:11.338Z,99416.98
2022-12-11T09:36:11.060Z,99415.80
2022-12-11T09:37:11.061Z,99417.61
2022-12-11T09:38:11.066Z,99415.41
2022-12-11T09:39:11.061Z,99417.14
2022-12-11T09:40:11.062Z,99413.87
2022-12-11T09:41:19.072Z,99415.04
2022-12-11T09:42:18.061Z,99417.52
2022-12-11T09:43:22.069Z,99414.51
2022-12-11T09:44:22.060Z,99417.18
2022-12-11T09:45:15.058Z,99416.25
2022-12-11T09:46:14.104Z,99415.88
2022-12-11T09:47:19.059Z,99419.85
2022-12-11T09:48:11.060Z,99417.74
2022-12-11T09:49:22.062Z,99421.80
2022-12-11T09:50:22.073Z,99421.46
2022-12-11T09:51:18.062Z,99420.77
2022-12-11T09:52:18.077Z,99420.91
2022-12-11T09:53:19.064Z,99422.54
2022-12-11T09:54:13.061Z,99424.94
2022-12-11T09:55:19.062Z,99424.16
2022-12-11T09:56:22.060Z,99423.59
2022-12-11T09:57:19.061Z,99422.04
2022-12-11T09:58:19.064Z,99424.06
2022-12-11T09:59:19.063Z,99424.48
2022-12-11T10:00:22.062Z,99423.59
2022-12-11T10:01:22.102Z,99427.04
2022-12-11T10:02:19.128Z,99429.05
2022-12-11T10:03:22.062Z,99428.52
2022-12-11T10:04:20.068Z,99433.00
2022-12-11T10:05:19.061Z,99430.73
2022-12-11T10:06:19.059Z,99436.01
2022-12-11T10:07:19.057Z,99436.94
2022-12-11T10:08:19.142Z,99433.43
2022-12-11T10:09:21.068Z,99436.84
2022-12-11T10:10:19.064Z,99436.79
2022-12-11T10:11:22.059Z,99435.44
2022-12-11T10:12:22.062Z,99434.79
2022-12-11T10:13:22.064Z,99439.12
2022-12-11T10:14:19.060Z,99436.47
2022-12-11T10:15:22.068Z,99437.35
2022-12-11T10:16:19.165Z,99436.09
2022-12-11T10:17:21.066Z,99436.75
2022-12-11T10:18:15.066Z,99434.79
2022-12-11T10:19:19.063Z,99438.69
2022-12-11T10:20:19.066Z,99436.27
2022-12-11T10:21:11.069Z,99436.33
2022-12-11T10:22:19.059Z,99438.95
2022-12-11T10:23:19.063Z,99438.14
2022-12-11T10:24:48.928Z,99433.77
2022-12-11T10:25:21.076Z,99432.78
2022-12-11T10:26:17.063Z,99431.49
2022-12-11T10:27:18.060Z,99432.20
2022-12-11T10:28:14.063Z,99434.65
2022-12-11T10:29:15.069Z,99429.61
2022-12-11T10:30:19.062Z,99428.40
2022-12-11T10:31:19.191Z,99428.38
2022-12-11T10:32:19.063Z,99431.70
2022-12-11T10:33:25.068Z,99430.40
2022-12-11T10:34:13.075Z,99430.27
2022-12-11T10:35:19.060Z,99430.52
2022-12-11T10:36:15.059Z,99431.00
2022-12-11T10:37:11.071Z,99428.04
2022-12-11T10:38:20.087Z,99430.55
2022-12-11T10:39:15.061Z,99428.36
2022-12-11T10:40:11.058Z,99428.10
2022-12-11T10:41:21.076Z,99428.79
2022-12-11T10:42:18.073Z,99426.54
2022-12-11T10:43:11.062Z,99429.68
2022-12-11T10:44:19.064Z,99432.96
2022-12-11T10:45:15.071Z,99430.18
2022-12-11T10:46:19.172Z,99431.49
2022-12-11T10:47:14.062Z,99432.86
2022-12-11T10:48:13.062Z,99429.62
2022-12-11T10:49:19.061Z,99432.92
2022-12-11T10:50:19.061Z,99431.77
2022-12-11T10:51:11.059Z,99430.13
2022-12-11T10:52:24.068Z,99430.21
2022-12-11T10:53:19.064Z,99426.90
2022-12-11T10:54:22.061Z,99435.46
2022-12-11T10:55:19.063Z,99427.02
2022-12-11T10:56:11.064Z,99429.28
2022-12-11T10:57:13.069Z,99428.63
2022-12-11T10:58:19.063Z,99429.02
2022-12-11T10:59:24.133Z,99425.82
2022-12-11T11:00:19.066Z,99425.52
2022-12-11T11:01:15.188Z,99427.24
2022-12-11T11:02:19.096Z,99426.12
2022-12-11T11:03:19.061Z,99423.05
2022-12-11T11:04:15.060Z,99424.88
2022-12-11T11:05:16.064Z,99423.15
2022-12-11T11:06:18.068Z,99426.07
2022-12-11T11:07:21.063Z,99426.86
2022-12-11T11:08:15.181Z,99426.84
2022-12-11T11:09:19.065Z,99423.79
2022-12-11T11:10:17.076Z,99422.27
2022-12-11T11:11:19.063Z,99413.87
2022-12-11T11:12:19.053Z,99415.51
2022-12-11T11:13:15.057Z,99416.35
2022-12-11T11:14:15.065Z,99417.24
2022-12-11T11:15:14.189Z,99412.75
2022-12-11T11:16:14.141Z,99411.79
2022-12-11T11:17:15.059Z,99411.07
2022-12-11T11:18:19.058Z,99409.94
2022-12-11T11:19:19.057Z,99405.32
2022-12-11T11:20:14.065Z,99407.59
2022-12-11T11:21:18.066Z,99410.48
2022-12-11T11:22:16.061Z,99407.41
2022-12-11T11:23:14.056Z,99406.83
2022-12-11T11:24:19.057Z,99407.69
2022-12-11T11:25:19.070Z,99411.87
2022-12-11T11:26:11.057Z,99410.17
2022-12-11T11:27:25.055Z,99404.36
2022-12-11T11:28:19.059Z,99405.97
2022-12-11T11:29:19.060Z,99404.50
2022-12-11T11:30:19.060Z,99403.95
2022-12-11T11:31:11.087Z,99404.60
2022-12-11T11:32:17.058Z,99407.91
2022-12-11T11:33:18.056Z,99412.58
2022-12-11T11:34:15.060Z,99407.18
2022-12-11T11:35:19.056Z,99405.51
2022-12-11T11:36:19.059Z,99406.28
2022-12-11T11:37:19.063Z,99405.00
2022-12-11T11:38:18.059Z,99401.82
2022-12-11T11:39:22.057Z,99404.99
2022-12-11T11:40:21.061Z,99404.24
2022-12-11T11:41:20.060Z,99402.72
2022-12-11T11:42:18.060Z,99403.19
2022-12-11T11:43:20.067Z,99400.59
2022-12-11T11:44:14.078Z,99403.99